sensor_id;sensor_type;location;lat;lon;timestamp;pressure;altitude;pressure_sealevel;temperature;humidity
30073;BME280;16897;52.422;13.678;2023-07-24T00:01:49;100260.75;;;23.18;41.53
30073;BME280;16897;52.422;13.678;2023-07-24T00:05:51;100255.06;;;23.21;41.29
30073;BME280;16897;52.422;13.678;2023-07-24T00:09:52;100251.38;;;23.22;41.57
30073;BME280;16897;52.422;13.678;2023-07-24T00:13:54;100250.38;;;23.23;41.88
30073;BME280;16897;52.422;13.678;2023-07-24T00:17:55;100230.13;;;23.14;41.56
30073;BME280;16897;52.422;13.678;2023-07-24T00:21:56;100245.59;;;23.18;41.84
30073;BME280;16897;52.422;13.678;2023-07-24T00:25:58;100223.69;;;23.08;41.84
30073;BME280;16897;52.422;13.678;2023-07-24T00:29:59;100224.63;;;23.15;41.44
30073;BME280;16897;52.422;13.678;2023-07-24T00:34:02;100206.06;;;23.07;41.86
30073;BME280;16897;52.422;13.678;2023-07-24T00:38:03;100214.34;;;23.12;41.80
30073;BME280;16897;52.422;13.678;2023-07-24T00:42:05;100218.47;;;23.15;41.55
30073;BME280;16897;52.422;13.678;2023-07-24T00:46:09;100221.81;;;23.17;41.62
30073;BME280;16897;52.422;13.678;2023-07-24T00:50:11;100212.78;;;23.18;41.92
30073;BME280;16897;52.422;13.678;2023-07-24T00:54:14;100190.06;;;23.07;42.11
30073;BME280;16897;52.422;13.678;2023-07-24T00:58:17;100201.69;;;23.14;41.58
30073;BME280;16897;52.422;13.678;2023-07-24T01:02:20;100175.81;;;23.00;41.97
30073;BME280;16897;52.422;13.678;2023-07-24T01:06:22;100186.97;;;23.18;42.12
30073;BME280;16897;52.422;13.678;2023-07-24T01:10:23;100184.84;;;23.14;41.89
30073;BME280;16897;52.422;13.678;2023-07-24T01:14:33;100174.00;;;23.15;42.19
30073;BME280;16897;52.422;13.678;2023-07-24T01:18:37;100152.31;;;23.04;42.09
30073;BME280;16897;52.422;13.678;2023-07-24T01:23:53;100140.84;;;22.95;42.25
30073;BME280;16897;52.422;13.678;2023-07-24T01:27:23;100143.22;;;22.98;42.28
30073;BME280;16897;52.422;13.678;2023-07-24T01:31:25;100170.53;;;23.15;42.13
30073;BME280;16897;52.422;13.678;2023-07-24T01:35:26;100163.38;;;23.15;42.02
30073;BME280;16897;52.422;13.678;2023-07-24T01:39:29;100162.25;;;23.10;42.36
30073;BME280;16897;52.422;13.678;2023-07-24T01:43:30;100151.47;;;23.03;42.38
30073;BME280;16897;52.422;13.678;2023-07-24T01:47:33;100141.19;;;23.00;41.92
30073;BME280;16897;52.422;13.678;2023-07-24T01:51:35;100153.97;;;23.05;42.16
30073;BME280;16897;52.422;13.678;2023-07-24T01:55:37;100161.78;;;23.06;42.00
30073;BME280;16897;52.422;13.678;2023-07-24T01:59:39;100164.72;;;23.11;42.28
30073;BME280;16897;52.422;13.678;2023-07-24T02:03:40;100157.28;;;23.07;42.08
30073;BME280;16897;52.422;13.678;2023-07-24T02:07:42;100162.41;;;23.08;42.02
30073;BME280;16897;52.422;13.678;2023-07-24T02:11:44;100145.34;;;22.94;42.32
30073;BME280;16897;52.422;13.678;2023-07-24T02:15:45;100126.69;;;22.80;42.36
30073;BME280;16897;52.422;13.678;2023-07-24T02:19:47;100154.13;;;23.03;42.12
30073;BME280;16897;52.422;13.678;2023-07-24T02:23:48;100130.06;;;22.96;42.09
30073;BME280;16897;52.422;13.678;2023-07-24T02:27:50;100148.28;;;23.08;42.17
30073;BME280;16897;52.422;13.678;2023-07-24T02:31:53;100090.78;;;22.75;42.13
30073;BME280;16897;52.422;13.678;2023-07-24T02:35:55;100106.69;;;22.84;42.31
30073;BME280;16897;52.422;13.678;2023-07-24T02:39:57;100146.63;;;23.07;42.14
30073;BME280;16897;52.422;13.678;2023-07-24T02:43:58;100139.63;;;23.06;42.50
30073;BME280;16897;52.422;13.678;2023-07-24T02:48:00;100112.00;;;22.84;42.24
30073;BME280;16897;52.422;13.678;2023-07-24T02:52:03;100123.97;;;22.88;42.21
30073;BME280;16897;52.422;13.678;2023-07-24T02:56:05;100170.59;;;23.07;42.34
30073;BME280;16897;52.422;13.678;2023-07-24T03:00:07;100158.63;;;23.03;42.61
30073;BME280;16897;52.422;13.678;2023-07-24T03:04:09;100162.97;;;23.04;42.78
30073;BME280;16897;52.422;13.678;2023-07-24T03:08:10;100159.19;;;22.98;42.57
30073;BME280;16897;52.422;13.678;2023-07-24T03:12:12;100179.41;;;23.07;42.52
30073;BME280;16897;52.422;13.678;2023-07-24T03:16:13;100167.81;;;23.00;42.62
30073;BME280;16897;52.422;13.678;2023-07-24T03:20:17;100172.78;;;23.03;42.70
30073;BME280;16897;52.422;13.678;2023-07-24T03:24:18;100189.53;;;23.12;42.45
30073;BME280;16897;52.422;13.678;2023-07-24T03:28:20;100177.41;;;23.09;42.50
30073;BME280;16897;52.422;13.678;2023-07-24T03:32:22;100174.19;;;23.14;42.85
30073;BME280;16897;52.422;13.678;2023-07-24T03:36:23;100178.31;;;23.16;42.84
30073;BME280;16897;52.422;13.678;2023-07-24T03:40:25;100179.19;;;23.17;42.70
30073;BME280;16897;52.422;13.678;2023-07-24T03:44:26;100191.47;;;23.18;42.89
30073;BME280;16897;52.422;13.678;2023-07-24T03:48:28;100157.66;;;23.04;42.71
30073;BME280;16897;52.422;13.678;2023-07-24T03:52:29;100136.56;;;22.94;42.85
30073;BME280;16897;52.422;13.678;2023-07-24T03:56:31;100196.06;;;23.24;43.07
30073;BME280;16897;52.422;13.678;2023-07-24T04:00:32;100178.81;;;23.20;43.07
30073;BME280;16897;52.422;13.678;2023-07-24T04:04:34;100142.50;;;23.04;42.85
30073;BME280;16897;52.422;13.678;2023-07-24T04:08:35;100168.16;;;23.20;43.21
30073;BME280;16897;52.422;13.678;2023-07-24T04:12:37;100174.75;;;23.24;43.19
30073;BME280;16897;52.422;13.678;2023-07-24T04:16:39;100177.72;;;23.29;43.30
30073;BME280;16897;52.422;13.678;2023-07-24T04:20:40;100145.09;;;23.12;43.38
30073;BME280;16897;52.422;13.678;2023-07-24T04:24:42;100176.16;;;23.35;42.95
30073;BME280;16897;52.422;13.678;2023-07-24T04:28:43;100137.53;;;23.16;43.31
30073;BME280;16897;52.422;13.678;2023-07-24T04:32:45;100170.84;;;23.35;43.31
30073;BME280;16897;52.422;13.678;2023-07-24T04:36:47;100157.97;;;23.38;43.05
30073;BME280;16897;52.422;13.678;2023-07-24T04:40:48;100151.53;;;23.33;42.92
30073;BME280;16897;52.422;13.678;2023-07-24T04:44:50;100123.84;;;23.19;43.23
30073;BME280;16897;52.422;13.678;2023-07-24T04:48:53;100159.72;;;23.46;43.55
30073;BME280;16897;52.422;13.678;2023-07-24T04:52:54;100135.75;;;23.31;43.40
30073;BME280;16897;52.422;13.678;2023-07-24T04:56:56;100113.50;;;23.24;43.51
30073;BME280;16897;52.422;13.678;2023-07-24T05:01:02;100156.81;;;23.56;43.37
30073;BME280;16897;52.422;13.678;2023-07-24T05:05:04;100160.41;;;23.63;43.57
30073;BME280;16897;52.422;13.678;2023-07-24T05:09:06;100159.75;;;23.61;43.27
30073;BME280;16897;52.422;13.678;2023-07-24T05:13:07;100152.41;;;23.63;43.63
30073;BME280;16897;52.422;13.678;2023-07-24T05:17:12;100129.59;;;23.60;43.73
30073;BME280;16897;52.422;13.678;2023-07-24T05:21:13;100141.94;;;23.76;43.52
30073;BME280;16897;52.422;13.678;2023-07-24T05:25:15;100146.16;;;23.85;43.85
30073;BME280;16897;52.422;13.678;2023-07-24T05:29:16;100130.16;;;23.85;43.53
30073;BME280;16897;52.422;13.678;2023-07-24T05:33:18;100129.59;;;23.90;43.78
30073;BME280;16897;52.422;13.678;2023-07-24T05:37:19;100137.94;;;24.02;43.95
30073;BME280;16897;52.422;13.678;2023-07-24T05:41:21;100140.25;;;24.05;43.96
30073;BME280;16897;52.422;13.678;2023-07-24T05:45:23;100135.09;;;24.03;43.53
30073;BME280;16897;52.422;13.678;2023-07-24T05:49:25;100117.78;;;24.14;43.55
30073;BME280;16897;52.422;13.678;2023-07-24T05:53:27;100131.00;;;24.22;43.92
30073;BME280;16897;52.422;13.678;2023-07-24T05:57:29;100111.38;;;24.30;44.15
30073;BME280;16897;52.422;13.678;2023-07-24T06:01:30;100107.06;;;24.44;44.04
30073;BME280;16897;52.422;13.678;2023-07-24T06:05:32;100098.97;;;24.59;44.26
30073;BME280;16897;52.422;13.678;2023-07-24T06:09:33;100067.31;;;24.56;44.32
30073;BME280;16897;52.422;13.678;2023-07-24T06:13:35;100103.56;;;24.93;44.34
30073;BME280;16897;52.422;13.678;2023-07-24T06:17:37;100049.25;;;24.86;43.99
30073;BME280;16897;52.422;13.678;2023-07-24T06:21:38;100103.00;;;25.26;44.18
30073;BME280;16897;52.422;13.678;2023-07-24T06:25:40;100089.25;;;25.29;44.06
30073;BME280;16897;52.422;13.678;2023-07-24T06:29:42;100094.28;;;25.45;44.09
30073;BME280;16897;52.422;13.678;2023-07-24T06:33:55;100027.53;;;25.24;44.27
30073;BME280;16897;52.422;13.678;2023-07-24T06:37:57;100060.97;;;25.54;43.89
30073;BME280;16897;52.422;13.678;2023-07-24T06:41:59;100069.47;;;25.65;44.22
30073;BME280;16897;52.422;13.678;2023-07-24T06:46:00;100053.66;;;25.70;43.91
30073;BME280;16897;52.422;13.678;2023-07-24T06:50:02;100068.53;;;25.79;44.01
30073;BME280;16897;52.422;13.678;2023-07-24T06:54:05;100066.09;;;25.91;44.02
30073;BME280;16897;52.422;13.678;2023-07-24T06:58:06;100058.50;;;25.94;44.13
30073;BME280;16897;52.422;13.678;2023-07-24T07:02:08;100070.88;;;26.02;44.08
30073;BME280;16897;52.422;13.678;2023-07-24T07:06:10;100064.28;;;26.04;44.01
30073;BME280;16897;52.422;13.678;2023-07-24T07:10:13;100035.69;;;25.98;43.80
30073;BME280;16897;52.422;13.678;2023-07-24T07:14:15;100052.56;;;26.19;43.65
30073;BME280;16897;52.422;13.678;2023-07-24T07:18:16;100049.72;;;26.27;43.50
30073;BME280;16897;52.422;13.678;2023-07-24T07:22:18;100044.78;;;26.37;43.78
30073;BME280;16897;52.422;13.678;2023-07-24T07:26:20;100015.97;;;26.39;43.86
30073;BME280;16897;52.422;13.678;2023-07-24T07:30:21;100042.56;;;26.61;43.52
30073;BME280;16897;52.422;13.678;2023-07-24T07:34:23;100039.06;;;26.67;43.79
30073;BME280;16897;52.422;13.678;2023-07-24T07:38:25;100040.50;;;26.76;43.49
30073;BME280;16897;52.422;13.678;2023-07-24T07:42:26;100034.28;;;26.89;43.69
30073;BME280;16897;52.422;13.678;2023-07-24T07:46:28;100027.50;;;26.80;43.46
30073;BME280;16897;52.422;13.678;2023-07-24T07:50:30;100065.19;;;27.11;43.58
30073;BME280;16897;52.422;13.678;2023-07-24T07:54:31;100068.06;;;27.23;43.86
30073;BME280;16897;52.422;13.678;2023-07-24T07:58:33;100055.69;;;27.35;43.81
30073;BME280;16897;52.422;13.678;2023-07-24T08:02:35;100046.13;;;27.46;43.52
30073;BME280;16897;52.422;13.678;2023-07-24T08:06:36;100043.63;;;27.51;43.70
30073;BME280;16897;52.422;13.678;2023-07-24T08:10:38;100058.84;;;27.71;43.42
30073;BME280;16897;52.422;13.678;2023-07-24T08:14:40;100055.50;;;27.75;43.17
30073;BME280;16897;52.422;13.678;2023-07-24T08:18:42;100013.03;;;27.66;43.28
30073;BME280;16897;52.422;13.678;2023-07-24T08:22:43;100035.47;;;27.85;43.42
30073;BME280;16897;52.422;13.678;2023-07-24T08:26:45;100027.72;;;28.01;43.28
30073;BME280;16897;52.422;13.678;2023-07-24T08:30:55;100029.50;;;28.14;43.23
30073;BME280;16897;52.422;13.678;2023-07-24T08:34:57;99948.38;;;27.80;42.94
30073;BME280;16897;52.422;13.678;2023-07-24T08:38:58;100009.13;;;28.32;43.19
30073;BME280;16897;52.422;13.678;2023-07-24T08:43:00;99995.50;;;28.33;43.19
30073;BME280;16897;52.422;13.678;2023-07-24T08:47:03;100005.34;;;28.39;42.99
30073;BME280;16897;52.422;13.678;2023-07-24T08:51:06;100009.06;;;28.45;42.86
30073;BME280;16897;52.422;13.678;2023-07-24T08:55:08;100004.09;;;28.42;43.22
30073;BME280;16897;52.422;13.678;2023-07-24T08:59:10;99990.28;;;28.38;43.04
30073;BME280;16897;52.422;13.678;2023-07-24T09:03:12;99995.25;;;28.35;43.03
30073;BME280;16897;52.422;13.678;2023-07-24T09:07:13;99992.75;;;28.40;42.80
30073;BME280;16897;52.422;13.678;2023-07-24T09:11:15;99982.00;;;28.40;42.72
30073;BME280;16897;52.422;13.678;2023-07-24T09:15:17;99949.41;;;28.36;42.67
30073;BME280;16897;52.422;13.678;2023-07-24T09:19:19;99968.94;;;28.50;42.67
30073;BME280;16897;52.422;13.678;2023-07-24T09:23:27;99960.66;;;28.52;42.68
30073;BME280;16897;52.422;13.678;2023-07-24T09:27:29;99949.47;;;28.55;42.59
30073;BME280;16897;52.422;13.678;2023-07-24T09:31:35;99958.94;;;28.57;42.68
30073;BME280;16897;52.422;13.678;2023-07-24T09:35:37;99969.56;;;28.71;42.49
30073;BME280;16897;52.422;13.678;2023-07-24T09:39:39;99966.59;;;28.79;42.49
30073;BME280;16897;52.422;13.678;2023-07-24T09:43:41;99957.31;;;28.75;42.24
30073;BME280;16897;52.422;13.678;2023-07-24T09:47:48;99957.63;;;28.85;42.29
30073;BME280;16897;52.422;13.678;2023-07-24T09:51:55;99951.63;;;28.83;42.34
30073;BME280;16897;52.422;13.678;2023-07-24T09:56:05;99968.91;;;28.94;42.64
30073;BME280;16897;52.422;13.678;2023-07-24T10:00:07;99935.88;;;28.86;42.24
30073;BME280;16897;52.422;13.678;2023-07-24T10:04:09;99950.72;;;29.14;42.01
30073;BME280;16897;52.422;13.678;2023-07-24T10:08:11;99947.00;;;29.27;42.18
30073;BME280;16897;52.422;13.678;2023-07-24T10:12:12;99913.78;;;29.21;42.08
30073;BME280;16897;52.422;13.678;2023-07-24T10:16:14;99942.56;;;29.51;42.04
30073;BME280;16897;52.422;13.678;2023-07-24T10:20:16;99916.03;;;29.54;41.95
30073;BME280;16897;52.422;13.678;2023-07-24T10:24:18;99891.53;;;29.44;41.72
30073;BME280;16897;52.422;13.678;2023-07-24T10:28:35;99902.63;;;29.66;41.67
30073;BME280;16897;52.422;13.678;2023-07-24T10:32:46;99884.31;;;29.56;41.62
30073;BME280;16897;52.422;13.678;2023-07-24T10:36:48;99890.84;;;29.79;41.87
30073;BME280;16897;52.422;13.678;2023-07-24T10:41:01;99879.00;;;29.92;41.85
30073;BME280;16897;52.422;13.678;2023-07-24T10:45:08;99892.50;;;30.15;41.46
30073;BME280;16897;52.422;13.678;2023-07-24T10:49:12;99870.84;;;30.22;41.71
30073;BME280;16897;52.422;13.678;2023-07-24T10:53:15;99838.09;;;30.25;41.50
30073;BME280;16897;52.422;13.678;2023-07-24T10:57:25;99851.50;;;30.49;41.52
30073;BME280;16897;52.422;13.678;2023-07-24T11:01:26;99839.19;;;30.53;41.33
30073;BME280;16897;52.422;13.678;2023-07-24T11:05:27;99823.16;;;30.58;41.42
30073;BME280;16897;52.422;13.678;2023-07-24T11:09:36;99829.88;;;30.72;41.06
30073;BME280;16897;52.422;13.678;2023-07-24T11:13:38;99827.44;;;30.82;41.18
30073;BME280;16897;52.422;13.678;2023-07-24T11:17:41;99796.16;;;30.81;40.80
30073;BME280;16897;52.422;13.678;2023-07-24T11:21:42;99788.81;;;30.94;40.71
30073;BME280;16897;52.422;13.678;2023-07-24T11:25:44;99789.63;;;30.94;41.15
30073;BME280;16897;52.422;13.678;2023-07-24T11:29:49;99780.41;;;31.07;40.50
30073;BME280;16897;52.422;13.678;2023-07-24T11:33:52;99780.03;;;31.15;40.42
30073;BME280;16897;52.422;13.678;2023-07-24T11:37:54;99759.06;;;31.05;40.67
30073;BME280;16897;52.422;13.678;2023-07-24T11:41:56;99771.69;;;31.17;40.35
30073;BME280;16897;52.422;13.678;2023-07-24T11:45:58;99771.13;;;31.15;40.36
30073;BME280;16897;52.422;13.678;2023-07-24T11:50:01;99764.25;;;31.07;40.13
30073;BME280;16897;52.422;13.678;2023-07-24T11:54:06;99757.38;;;31.16;40.37
30073;BME280;16897;52.422;13.678;2023-07-24T11:58:08;99732.59;;;31.02;40.24
30073;BME280;16897;52.422;13.678;2023-07-24T12:02:15;99742.25;;;31.15;40.00
30073;BME280;16897;52.422;13.678;2023-07-24T12:06:17;99747.34;;;31.28;39.91
30073;BME280;16897;52.422;13.678;2023-07-24T12:10:26;99751.72;;;31.46;39.47
30073;BME280;16897;52.422;13.678;2023-07-24T12:14:28;99758.16;;;31.62;39.30
30073;BME280;16897;52.422;13.678;2023-07-24T12:18:30;99749.06;;;31.68;39.35
30073;BME280;16897;52.422;13.678;2023-07-24T12:22:32;99737.84;;;31.77;39.58
30073;BME280;16897;52.422;13.678;2023-07-24T12:26:33;99746.25;;;31.80;39.13
30073;BME280;16897;52.422;13.678;2023-07-24T12:30:35;99746.69;;;31.72;39.26
30073;BME280;16897;52.422;13.678;2023-07-24T12:34:36;99760.69;;;31.69;39.04
30073;BME280;16897;52.422;13.678;2023-07-24T12:38:38;99732.72;;;31.41;39.01
30073;BME280;16897;52.422;13.678;2023-07-24T12:42:39;99764.34;;;31.46;38.71
30073;BME280;16897;52.422;13.678;2023-07-24T12:46:41;99765.34;;;31.40;39.05
30073;BME280;16897;52.422;13.678;2023-07-24T12:50:42;99764.81;;;31.26;39.00
30073;BME280;16897;52.422;13.678;2023-07-24T12:54:44;99766.63;;;31.20;38.84
30073;BME280;16897;52.422;13.678;2023-07-24T12:58:46;99748.78;;;31.02;38.55
30073;BME280;16897;52.422;13.678;2023-07-24T13:02:47;99720.81;;;30.92;38.60
30073;BME280;16897;52.422;13.678;2023-07-24T13:06:49;99726.16;;;31.03;38.99
30073;BME280;16897;52.422;13.678;2023-07-24T13:10:51;99712.31;;;31.00;38.60
30073;BME280;16897;52.422;13.678;2023-07-24T13:14:53;99714.78;;;31.18;38.68
30073;BME280;16897;52.422;13.678;2023-07-24T13:18:54;99725.16;;;31.26;38.69
30073;BME280;16897;52.422;13.678;2023-07-24T13:22:56;99729.53;;;31.27;38.71
30073;BME280;16897;52.422;13.678;2023-07-24T13:26:57;99736.22;;;31.25;38.76
30073;BME280;16897;52.422;13.678;2023-07-24T13:30:59;99725.41;;;31.08;38.55
30073;BME280;16897;52.422;13.678;2023-07-24T13:35:01;99709.63;;;31.00;38.81
30073;BME280;16897;52.422;13.678;2023-07-24T13:39:02;99721.81;;;31.02;38.86
30073;BME280;16897;52.422;13.678;2023-07-24T13:43:04;99703.69;;;30.98;38.45
30073;BME280;16897;52.422;13.678;2023-07-24T13:47:06;99706.13;;;30.99;38.67
30073;BME280;16897;52.422;13.678;2023-07-24T13:51:08;99701.72;;;30.93;38.51
30073;BME280;16897;52.422;13.678;2023-07-24T13:55:13;99709.88;;;30.81;38.49
30073;BME280;16897;52.422;13.678;2023-07-24T13:59:15;99691.00;;;30.70;38.78
30073;BME280;16897;52.422;13.678;2023-07-24T14:03:17;99693.06;;;30.62;38.42
30073;BME280;16897;52.422;13.678;2023-07-24T14:07:19;99679.19;;;30.42;38.45
30073;BME280;16897;52.422;13.678;2023-07-24T14:11:21;99686.97;;;30.38;38.71
30073;BME280;16897;52.422;13.678;2023-07-24T14:15:23;99655.81;;;30.19;38.61
30073;BME280;16897;52.422;13.678;2023-07-24T14:19:25;99668.59;;;30.24;38.51
30073;BME280;16897;52.422;13.678;2023-07-24T14:23:27;99644.63;;;30.10;38.64
30073;BME280;16897;52.422;13.678;2023-07-24T14:27:29;99677.03;;;30.27;38.39
30073;BME280;16897;52.422;13.678;2023-07-24T14:31:31;99677.63;;;30.17;38.51
30073;BME280;16897;52.422;13.678;2023-07-24T14:35:32;99688.06;;;30.14;38.85
30073;BME280;16897;52.422;13.678;2023-07-24T14:39:34;99686.78;;;30.16;38.88
30073;BME280;16897;52.422;13.678;2023-07-24T14:43:36;99655.38;;;30.10;38.57
30073;BME280;16897;52.422;13.678;2023-07-24T14:47:37;99665.84;;;30.07;38.80
30073;BME280;16897;52.422;13.678;2023-07-24T14:51:38;99656.13;;;30.06;38.64
30073;BME280;16897;52.422;13.678;2023-07-24T14:55:40;99661.75;;;30.04;38.69
30073;BME280;16897;52.422;13.678;2023-07-24T14:59:41;99642.34;;;29.90;38.77
30073;BME280;16897;52.422;13.678;2023-07-24T15:03:43;99644.09;;;29.96;38.83
30073;BME280;16897;52.422;13.678;2023-07-24T15:07:44;99579.78;;;29.71;38.85
30073;BME280;16897;52.422;13.678;2023-07-24T15:11:46;99610.38;;;29.94;38.93
30073;BME280;16897;52.422;13.678;2023-07-24T15:15:48;99576.84;;;29.73;38.90
30073;BME280;16897;52.422;13.678;2023-07-24T15:19:49;99597.81;;;29.99;38.79
30073;BME280;16897;52.422;13.678;2023-07-24T15:23:50;99588.59;;;29.95;38.88
30073;BME280;16897;52.422;13.678;2023-07-24T15:27:53;99568.50;;;29.86;38.92
30073;BME280;16897;52.422;13.678;2023-07-24T15:31:54;99581.56;;;29.94;39.03
30073;BME280;16897;52.422;13.678;2023-07-24T15:35:56;99575.97;;;29.96;38.78
30073;BME280;16897;52.422;13.678;2023-07-24T15:39:58;99582.97;;;29.97;38.79
30073;BME280;16897;52.422;13.678;2023-07-24T15:43:59;99577.84;;;29.95;38.49
30073;BME280;16897;52.422;13.678;2023-07-24T15:48:01;99560.53;;;29.91;39.03
30073;BME280;16897;52.422;13.678;2023-07-24T15:52:03;99545.66;;;29.89;38.90
30073;BME280;16897;52.422;13.678;2023-07-24T15:56:04;99553.19;;;29.87;39.09
30073;BME280;16897;52.422;13.678;2023-07-24T16:00:07;99552.34;;;29.86;38.90
30073;BME280;16897;52.422;13.678;2023-07-24T16:04:13;99574.66;;;29.98;38.99
30073;BME280;16897;52.422;13.678;2023-07-24T16:08:15;99570.91;;;29.99;38.77
30073;BME280;16897;52.422;13.678;2023-07-24T16:12:16;99548.81;;;29.97;39.22
30073;BME280;16897;52.422;13.678;2023-07-24T16:16:18;99523.13;;;29.78;38.87
30073;BME280;16897;52.422;13.678;2023-07-24T16:20:19;99530.97;;;29.80;38.94
30073;BME280;16897;52.422;13.678;2023-07-24T16:24:22;99548.44;;;29.94;39.26
30073;BME280;16897;52.422;13.678;2023-07-24T16:28:24;99540.06;;;29.90;39.26
30073;BME280;16897;52.422;13.678;2023-07-24T16:32:25;99524.38;;;29.87;39.27
30073;BME280;16897;52.422;13.678;2023-07-24T16:36:27;99498.34;;;29.76;39.06
30073;BME280;16897;52.422;13.678;2023-07-24T16:40:29;99508.38;;;29.81;39.04
30073;BME280;16897;52.422;13.678;2023-07-24T16:44:30;99509.53;;;29.85;39.04
30073;BME280;16897;52.422;13.678;2023-07-24T16:48:32;99503.41;;;29.89;38.96
30073;BME280;16897;52.422;13.678;2023-07-24T16:52:34;99499.66;;;29.90;39.42
30073;BME280;16897;52.422;13.678;2023-07-24T16:56:36;99486.13;;;29.85;39.37
30073;BME280;16897;52.422;13.678;2023-07-24T17:00:38;99457.97;;;29.76;39.10
30073;BME280;16897;52.422;13.678;2023-07-24T17:04:39;99470.94;;;29.79;38.87
30073;BME280;16897;52.422;13.678;2023-07-24T17:08:41;99473.84;;;29.77;39.39
30073;BME280;16897;52.422;13.678;2023-07-24T17:12:43;99466.50;;;29.73;39.10
30073;BME280;16897;52.422;13.678;2023-07-24T17:16:44;99460.56;;;29.71;39.45
30073;BME280;16897;52.422;13.678;2023-07-24T17:20:47;99437.28;;;29.65;39.06
30073;BME280;16897;52.422;13.678;2023-07-24T17:24:50;99382.13;;;29.50;38.98
30073;BME280;16897;52.422;13.678;2023-07-24T17:28:51;99360.22;;;29.30;39.28
30073;BME280;16897;52.422;13.678;2023-07-24T17:32:52;99363.06;;;29.23;39.58
30073;BME280;16897;52.422;13.678;2023-07-24T17:36:54;99317.91;;;28.97;39.27
30073;BME280;16897;52.422;13.678;2023-07-24T17:40:56;99338.59;;;28.96;39.50
30073;BME280;16897;52.422;13.678;2023-07-24T17:45:03;99469.50;;;28.96;39.36
30073;BME280;16897;52.422;13.678;2023-07-24T17:49:04;99657.94;;;28.64;39.43
30073;BME280;16897;52.422;13.678;2023-07-24T17:53:06;99654.69;;;27.95;39.70
30073;BME280;16897;52.422;13.678;2023-07-24T17:57:07;99626.47;;;27.05;39.92
30073;BME280;16897;52.422;13.678;2023-07-24T18:01:09;99612.72;;;26.38;40.34
30073;BME280;16897;52.422;13.678;2023-07-24T18:05:11;99625.09;;;25.88;40.18
30073;BME280;16897;52.422;13.678;2023-07-24T18:09:13;99620.84;;;25.53;40.20
30073;BME280;16897;52.422;13.678;2023-07-24T18:13:15;99600.75;;;25.31;40.09
30073;BME280;16897;52.422;13.678;2023-07-24T18:17:16;99614.53;;;25.01;40.43
30073;BME280;16897;52.422;13.678;2023-07-24T18:21:18;99755.28;;;24.87;40.03
30073;BME280;16897;52.422;13.678;2023-07-24T18:25:21;99771.66;;;24.71;40.30
30073;BME280;16897;52.422;13.678;2023-07-24T18:29:22;99763.56;;;24.51;40.62
30073;BME280;16897;52.422;13.678;2023-07-24T18:33:23;99769.03;;;24.36;40.60
30073;BME280;16897;52.422;13.678;2023-07-24T18:37:25;99721.50;;;24.18;40.59
30073;BME280;16897;52.422;13.678;2023-07-24T18:41:26;99705.91;;;24.15;40.41
30073;BME280;16897;52.422;13.678;2023-07-24T18:45:28;99692.56;;;24.15;40.67
30073;BME280;16897;52.422;13.678;2023-07-24T18:49:30;99687.41;;;24.07;40.41
30073;BME280;16897;52.422;13.678;2023-07-24T18:53:32;99683.09;;;24.13;40.80
30073;BME280;16897;52.422;13.678;2023-07-24T18:57:33;99670.34;;;24.08;40.74
30073;BME280;16897;52.422;13.678;2023-07-24T19:01:35;99642.00;;;24.00;40.70
30073;BME280;16897;52.422;13.678;2023-07-24T19:05:37;99593.06;;;23.73;40.88
30073;BME280;16897;52.422;13.678;2023-07-24T19:09:38;99646.84;;;23.83;40.83
30073;BME280;16897;52.422;13.678;2023-07-24T19:13:40;99625.44;;;23.70;40.77
30073;BME280;16897;52.422;13.678;2023-07-24T19:17:41;99591.69;;;23.49;41.18
30073;BME280;16897;52.422;13.678;2023-07-24T19:21:44;99621.44;;;23.53;41.28
30073;BME280;16897;52.422;13.678;2023-07-24T19:25:45;99676.69;;;23.66;41.28
30073;BME280;16897;52.422;13.678;2023-07-24T19:29:47;99665.31;;;23.50;41.36
30073;BME280;16897;52.422;13.678;2023-07-24T19:33:48;99681.97;;;23.59;41.46
30073;BME280;16897;52.422;13.678;2023-07-24T19:37:50;99662.34;;;23.38;41.40
30073;BME280;16897;52.422;13.678;2023-07-24T19:41:51;99673.47;;;23.49;41.42
30073;BME280;16897;52.422;13.678;2023-07-24T19:45:53;99687.25;;;23.52;41.59
30073;BME280;16897;52.422;13.678;2023-07-24T19:49:54;99684.38;;;23.54;41.66
30073;BME280;16897;52.422;13.678;2023-07-24T19:53:55;99701.88;;;23.63;41.77
30073;BME280;16897;52.422;13.678;2023-07-24T19:57:57;99673.69;;;23.47;41.74
30073;BME280;16897;52.422;13.678;2023-07-24T20:01:58;99687.28;;;23.59;41.68
30073;BME280;16897;52.422;13.678;2023-07-24T20:06:03;99665.22;;;23.37;41.74
30073;BME280;16897;52.422;13.678;2023-07-24T20:10:06;99701.19;;;23.54;41.80
30073;BME280;16897;52.422;13.678;2023-07-24T20:14:08;99674.94;;;23.51;42.09
30073;BME280;16897;52.422;13.678;2023-07-24T20:18:10;99691.38;;;23.55;42.42
30073;BME280;16897;52.422;13.678;2023-07-24T20:22:11;99672.41;;;23.43;42.29
30073;BME280;16897;52.422;13.678;2023-07-24T20:26:12;99707.38;;;23.55;42.50
30073;BME280;16897;52.422;13.678;2023-07-24T20:30:16;99697.47;;;23.49;42.14
30073;BME280;16897;52.422;13.678;2023-07-24T20:34:18;99724.75;;;23.51;42.28
30073;BME280;16897;52.422;13.678;2023-07-24T20:38:27;99692.69;;;23.16;42.57
30073;BME280;16897;52.422;13.678;2023-07-24T20:42:29;99730.69;;;23.25;42.31
30073;BME280;16897;52.422;13.678;2023-07-24T20:46:31;99748.72;;;23.23;42.85
30073;BME280;16897;52.422;13.678;2023-07-24T20:50:39;99744.34;;;23.15;43.01
30073;BME280;16897;52.422;13.678;2023-07-24T20:54:41;99726.31;;;22.95;42.60
30073;BME280;16897;52.422;13.678;2023-07-24T20:58:45;99760.81;;;23.04;43.08